地図

経路データ

SID SEASON NUMBER BASIN SUBBASIN NAME ISO_TIME NATURE LAT LON WMO_WIND WMO_PRES WMO_AGENCY TRACK_TYPE DIST2LAND LANDFALL IFLAG USA_AGENCY USA_ATCF_ID USA_LAT USA_LON USA_RECORD USA_STATUS USA_WIND USA_PRES USA_SSHS USA_R34_NE USA_R34_SE USA_R34_SW USA_R34_NW USA_R50_NE USA_R50_SE USA_R50_SW USA_R50_NW USA_R64_NE USA_R64_SE USA_R64_SW USA_R64_NW USA_POCI USA_ROCI USA_RMW USA_EYE TOKYO_LAT TOKYO_LON TOKYO_GRADE TOKYO_WIND TOKYO_PRES TOKYO_R50_DIR TOKYO_R50_LONG TOKYO_R50_SHORT TOKYO_R30_DIR TOKYO_R30_LONG TOKYO_R30_SHORT TOKYO_LAND CMA_LAT CMA_LON CMA_CAT CMA_WIND CMA_PRES HKO_LAT HKO_LON HKO_CAT HKO_WIND HKO_PRES NEWDELHI_LAT NEWDELHI_LON NEWDELHI_GRADE NEWDELHI_WIND NEWDELHI_PRES NEWDELHI_CI NEWDELHI_DP NEWDELHI_POCI REUNION_LAT REUNION_LON REUNION_TYPE REUNION_WIND REUNION_PRES REUNION_TNUM REUNION_CI REUNION_RMW REUNION_R34_NE REUNION_R34_SE REUNION_R34_SW REUNION_R34_NW REUNION_R50_NE REUNION_R50_SE REUNION_R50_SW REUNION_R50_NW REUNION_R64_NE REUNION_R64_SE REUNION_R64_SW REUNION_R64_NW BOM_LAT BOM_LON BOM_TYPE BOM_WIND BOM_PRES BOM_TNUM BOM_CI BOM_RMW BOM_R34_NE BOM_R34_SE BOM_R34_SW BOM_R34_NW BOM_R50_NE BOM_R50_SE BOM_R50_SW BOM_R50_NW BOM_R64_NE BOM_R64_SE BOM_R64_SW BOM_R64_NW BOM_ROCI BOM_POCI BOM_EYE BOM_POS_METHOD BOM_PRES_METHOD NADI_LAT NADI_LON NADI_CAT NADI_WIND NADI_PRES WELLINGTON_LAT WELLINGTON_LON WELLINGTON_WIND WELLINGTON_PRES DS824_LAT DS824_LON DS824_STAGE DS824_WIND DS824_PRES TD9636_LAT TD9636_LON TD9636_STAGE TD9636_WIND TD9636_PRES TD9635_LAT TD9635_LON TD9635_WIND TD9635_PRES TD9635_ROCI NEUMANN_LAT NEUMANN_LON NEUMANN_CLASS NEUMANN_WIND NEUMANN_PRES MLC_LAT MLC_LON MLC_CLASS MLC_WIND MLC_PRES USA_GUST BOM_GUST BOM_GUST_PER REUNION_GUST REUNION_GUST_PER USA_SEAHGT USA_SEARAD_NE USA_SEARAD_SE USA_SEARAD_SW USA_SEARAD_NW STORM_SPEED STORM_DIR
1945170N13134 1945 27 WP MM DORIS 1945-06-18 12:00:00 TS 13.0000 134.000 main 920 920 O________OOO__ jtwc_wp WP041945 13.0000 134.000 30 -1 13.0000 134.000 TC 30 13.0000 134.000 1 30 13.0000 134.000 30 1000 240 11 21
1945170N13134 1945 27 WP MM DORIS 1945-06-18 15:00:00 TS 13.5012 134.195 main 954 954 P________PPP__ WP041945 13.5000 134.192 35 0 13.5000 134.192 TC 35 13.5047 134.203 1 33 13.5000 134.192 35 999 240 11 21
1945170N13134 1945 27 WP MM DORIS 1945-06-18 18:00:00 TS 14.0019 134.404 main 985 985 O________OPO__ jtwc_wp WP041945 14.0000 134.400 40 0 14.0000 134.400 TC 40 14.0075 134.415 1 37 14.0000 134.400 40 999 240 11 23
1945170N13134 1945 27 WP MM DORIS 1945-06-18 21:00:00 TS 14.5016 134.637 main 1018 1018 P________PPP__ WP041945 14.5000 134.635 42 0 14.5000 134.635 TC 42 14.5065 134.644 1 41 14.5000 134.635 42 998 240 11 26
1945170N13134 1945 27 WP MM DORIS 1945-06-19 00:00:00 TS 15.0000 134.900 main 1063 1063 O________OOO__ jtwc_wp WP041945 15.0000 134.900 45 0 15.0000 134.900 TC 45 15.0000 134.900 2 45 15.0000 134.900 45 997 240 11 28
1945170N13134 1945 27 WP MM DORIS 1945-06-19 03:00:00 TS 15.4970 135.196 main 1110 1110 P________PPP__ WP041945 15.5000 135.200 42 0 15.5000 135.200 TC 42 15.4880 135.185 2 42 15.5000 135.200 42 997 210 12 30
1945170N13134 1945 27 WP MM DORIS 1945-06-19 06:00:00 TS 15.9944 135.495 main 1159 1159 O________OPO__ jtwc_wp WP041945 16.0000 135.500 40 0 16.0000 135.500 TC 40 15.9778 135.480 2 40 16.0000 135.500 40 998 180 11 29
1945170N13134 1945 27 WP MM DORIS 1945-06-19 09:00:00 TS 16.4834 135.775 main 1209 1209 P________PPP__ WP041945 16.4850 135.780 37 0 16.4850 135.780 TC 37 16.4786 135.760 2 37 16.4850 135.780 37 999 180 11 26
1945170N13134 1945 27 WP MM DORIS 1945-06-19 12:00:00 TS 17.0000 136.000 main 1251 1251 O________OOO__ jtwc_wp WP041945 17.0000 136.000 35 0 17.0000 136.000 TC 35 17.0000 136.000 2 35 17.0000 136.000 35 1000 180 12 17
1945170N13134 1945 27 WP MM DORIS 1945-06-19 15:00:00 TS 17.5836 136.129 main 1289 1289 P________PPP__ WP041945 17.5924 136.115 35 0 17.5924 136.115 TC 35 17.5573 136.169 2 35 17.5924 136.115 35 1000 180 12 10
1945170N13134 1945 27 WP MM DORIS 1945-06-19 18:00:00 TS 18.1837 136.224 main 1329 1329 O________OPO__ jtwc_wp WP041945 18.2000 136.200 35 0 18.2000 136.200 TC 35 18.1347 136.296 2 35 18.2000 136.200 35 1001 180 12 11
1945170N13134 1945 27 WP MM DORIS 1945-06-19 21:00:00 TS 18.7481 136.362 main 1375 1375 P________PPP__ WP041945 18.7575 136.350 35 0 18.7575 136.350 TC 35 18.7198 136.400 2 35 18.7575 136.350 35 1000 180 12 13
1945170N13134 1945 27 WP MM DORIS 1945-06-20 00:00:00 TS 19.3000 136.500 main 1419 1383 O________OOO__ jtwc_wp WP041945 19.3000 136.500 35 0 19.3000 136.500 TC 35 19.3000 136.500 2 35 19.3000 136.500 35 1000 180 11 11
1945170N13134 1945 27 WP MM DORIS 1945-06-20 03:00:00 TS 19.8504 136.582 main 1373 1327 P________PPP__ WP041945 19.8500 136.600 35 0 19.8500 136.600 TC 35 19.8519 136.527 2 36 19.8500 136.600 35 1000 180 11 8
1945170N13134 1945 27 WP MM DORIS 1945-06-20 06:00:00 TS 20.3994 136.667 main 1327 1276 O________OPO__ jtwc_wp WP041945 20.4000 136.700 35 0 20.4000 136.700 TC 35 20.3978 136.568 2 37 20.4000 136.700 35 1000 180 11 8
1945170N13134 1945 27 WP MM DORIS 1945-06-20 09:00:00 TS 20.9427 136.740 main 1276 1232 P________PPP__ WP041945 20.9419 136.754 37 0 20.9419 136.754 TC 37 20.9448 136.699 2 38 20.9419 136.754 37 999 210 12 16
1945170N13134 1945 27 WP MM DORIS 1945-06-20 12:00:00 TS 21.5000 137.000 main 1232 1206 O________OOO__ jtwc_wp WP041945 21.5000 137.000 40 0 21.5000 137.000 TC 40 21.5000 137.000 2 40 21.5000 137.000 40 998 240 14 36
1945170N13134 1945 27 WP MM DORIS 1945-06-20 15:00:00 TS 22.0938 137.637 main 1206 1192 P________PPP__ WP041945 22.1005 137.659 40 0 22.1005 137.659 TC 40 22.0735 137.569 2 38 22.1005 137.659 40 998 240 18 49
1945170N13134 1945 27 WP MM DORIS 1945-06-20 18:00:00 TS 22.6881 138.453 main 1198 1183 O________OPO__ jtwc_wp WP041945 22.7000 138.500 40 0 22.7000 138.500 TC 40 22.6524 138.311 2 37 22.7000 138.500 40 999 240 19 52
1945170N13134 1945 27 WP MM DORIS 1945-06-20 21:00:00 TS 23.2503 139.225 main 1175 1146 P________PPP__ WP041945 23.2571 139.251 37 0 23.2571 139.251 TC 37 23.2297 139.148 2 36 23.2571 139.251 37 999 240 18 52
1945170N13134 1945 27 WP MM DORIS 1945-06-21 00:00:00 TS 23.8000 140.000 main 1146 1117 O________OOO__ jtwc_wp WP041945 23.8000 140.000 35 0 23.8000 140.000 TC 35 23.8000 140.000 2 35 23.8000 140.000 35 1000 240 18 52
1945170N13134 1945 27 WP MM DORIS 1945-06-21 03:00:00 TS 24.3523 140.764 main 1115 1097 P________PPP__ WP041945 24.3496 140.751 35 0 24.3496 140.751 TC 35 24.3605 140.804 2 35 24.3496 140.751 35 1000 270 18 51
1945170N13134 1945 27 WP MM DORIS 1945-06-21 06:00:00 TS 24.9032 141.515 main 1097 1074 O________OPO__ jtwc_wp WP041945 24.9000 141.500 35 0 24.9000 141.500 TC 35 24.9127 141.559 2 35 24.9000 141.500 35 1001 300 17 51
1945170N13134 1945 27 WP MM DORIS 1945-06-21 09:00:00 TS 25.4527 142.258 main 1069 1036 P________PPP__ WP041945 25.4508 142.249 35 0 25.4508 142.249 TC 35 25.4587 142.286 2 35 25.4508 142.249 35 1001 270 17 51
1945170N13134 1945 27 WP MM DORIS 1945-06-21 12:00:00 TS 26.0000 143.000 main 1036 O________OOO__ jtwc_wp WP041945 26.0000 143.000 35 0 26.0000 143.000 TC 35 26.0000 143.000 2 35 26.0000 143.000 35 1002 240 17 51

デジタル台風データ・検索

IBTrACS Databaseについて

本データベースは、米国NOAAが公開する1842年以降の世界の熱帯低気圧のベストトラックデータアーカイブInternational Best Track Archive for Climate Stewardship (IBTrACS)を、ウェブで閲覧しやすい形式に変換したものです。

最終更新日:2021-12-03